sensor_id;sensor_type;location;lat;lon;timestamp;P1;P2;P0
74426;PMS7003;62859;53.906;27.430;2023-05-19T00:01:51;1.8;1.5;1
74426;PMS7003;62859;53.906;27.430;2023-05-19T00:06:53;2;2;1.3
74426;PMS7003;62859;53.906;27.430;2023-05-19T00:11:34;1.7;1;1
74426;PMS7003;62859;53.906;27.430;2023-05-19T00:17:05;1.5;1.5;1
74426;PMS7003;62859;53.906;27.430;2023-05-19T00:21:55;1.3;1.3;1
74426;PMS7003;62859;53.906;27.430;2023-05-19T00:26:21;1;1;1
74426;PMS7003;62859;53.906;27.430;2023-05-19T00:31:45;2.7;1.3;1
74426;PMS7003;62859;53.906;27.430;2023-05-19T00:36:45;1.5;1.5;1
74426;PMS7003;62859;53.906;27.430;2023-05-19T00:41:21;1;1;1
74426;PMS7003;62859;53.906;27.430;2023-05-19T00:46:57;1;1;1
74426;PMS7003;62859;53.906;27.430;2023-05-19T00:51:45;2;1.3;1
74426;PMS7003;62859;53.906;27.430;2023-05-19T00:56:33;1.8;1.3;1
74426;PMS7003;62859;53.906;27.430;2023-05-19T01:02:05;0.7;0.7;0.7
74426;PMS7003;62859;53.906;27.430;2023-05-19T01:06:57;3;2;0.7
74426;PMS7003;62859;53.906;27.430;2023-05-19T01:11:21;2;2;1.7
74426;PMS7003;62859;53.906;27.430;2023-05-19T01:16:46;2.3;1.5;1.3
74426;PMS7003;62859;53.906;27.430;2023-05-19T01:22:38;1.3;1.3;1.3
74426;PMS7003;62859;53.906;27.430;2023-05-19T01:26:26;1.3;1.3;1
74426;PMS7003;62859;53.906;27.430;2023-05-19T01:31:51;1.7;1.7;1
74426;PMS7003;62859;53.906;27.430;2023-05-19T01:36:46;2.3;1.8;1.5
74426;PMS7003;62859;53.906;27.430;2023-05-19T01:41:57;1.7;1.3;1
74426;PMS7003;62859;53.906;27.430;2023-05-19T01:46:39;1.7;1.3;0.7
74426;PMS7003;62859;53.906;27.430;2023-05-19T01:51:27;0.7;0.7;0.7
74426;PMS7003;62859;53.906;27.430;2023-05-19T01:57:07;2.3;2.3;1
74426;PMS7003;62859;53.906;27.430;2023-05-19T02:02:07;0.7;0.7;0.7
74426;PMS7003;62859;53.906;27.430;2023-05-19T02:06:48;1.7;1.7;1.3
74426;PMS7003;62859;53.906;27.430;2023-05-19T02:12:08;2.3;1.8;1
74426;PMS7003;62859;53.906;27.430;2023-05-19T02:16:44;1;0.7;0.7
74426;PMS7003;62859;53.906;27.430;2023-05-19T02:21:33;3.3;1.7;1.3
74426;PMS7003;62859;53.906;27.430;2023-05-19T02:26:45;3.3;2;1
74426;PMS7003;62859;53.906;27.430;2023-05-19T02:32:05;0.8;0.8;0.8
74426;PMS7003;62859;53.906;27.430;2023-05-19T02:36:43;2;1.7;1
74426;PMS7003;62859;53.906;27.430;2023-05-19T02:41:21;1.3;1.3;1
74426;PMS7003;62859;53.906;27.430;2023-05-19T02:47:05;0.7;0.7;0.3
74426;PMS7003;62859;53.906;27.430;2023-05-19T02:51:33;1;1;0.8
74426;PMS7003;62859;53.906;27.430;2023-05-19T02:56:39;2;1.3;0.7
74426;PMS7003;62859;53.906;27.430;2023-05-19T03:01:43;1.3;1.3;0.7
74426;PMS7003;62859;53.906;27.430;2023-05-19T03:07:01;1.7;1.3;1
74426;PMS7003;62859;53.906;27.430;2023-05-19T03:11:51;1.3;1;0.8
74426;PMS7003;62859;53.906;27.430;2023-05-19T03:16:21;1.7;1.3;1
74426;PMS7003;62859;53.906;27.430;2023-05-19T03:21:45;1;1;1
74426;PMS7003;62859;53.906;27.430;2023-05-19T03:26:47;1;1;1
74426;PMS7003;62859;53.906;27.430;2023-05-19T03:31:21;1.3;1.3;1
74426;PMS7003;62859;53.906;27.430;2023-05-19T03:36:33;1.7;1.3;1
74426;PMS7003;62859;53.906;27.430;2023-05-19T03:41:51;1;0.7;0.7
74426;PMS7003;62859;53.906;27.430;2023-05-19T03:46:33;1.7;1.7;1.3
74426;PMS7003;62859;53.906;27.430;2023-05-19T03:51:57;1.3;1.3;0.8
74426;PMS7003;62859;53.906;27.430;2023-05-19T03:56:57;1.3;1.3;1
74426;PMS7003;62859;53.906;27.430;2023-05-19T04:01:33;1.7;1;0.7
74426;PMS7003;62859;53.906;27.430;2023-05-19T04:07:05;1.8;1.3;1
74426;PMS7003;62859;53.906;27.430;2023-05-19T04:11:21;1.7;1.7;1.3
74426;PMS7003;62859;53.906;27.430;2023-05-19T04:16:41;2.3;2;1.3
74426;PMS7003;62859;53.906;27.430;2023-05-19T04:21:51;2.3;1.3;1
74426;PMS7003;62859;53.906;27.430;2023-05-19T04:27:07;2;1.3;1
74426;PMS7003;62859;53.906;27.430;2023-05-19T04:31:43;2;1.7;1.7
74426;PMS7003;62859;53.906;27.430;2023-05-19T04:36:53;1.3;1.3;0.7
74426;PMS7003;62859;53.906;27.430;2023-05-19T04:41:51;2.3;2;1.3
74426;PMS7003;62859;53.906;27.430;2023-05-19T04:46:59;1.5;1.3;1
74426;PMS7003;62859;53.906;27.430;2023-05-19T04:51:29;2;2;1
74426;PMS7003;62859;53.906;27.430;2023-05-19T04:56:39;2.7;2;1.7
74426;PMS7003;62859;53.906;27.430;2023-05-19T05:02:07;1.3;1.3;1
74426;PMS7003;62859;53.906;27.430;2023-05-19T05:07:07;1.8;1.8;1
74426;PMS7003;62859;53.906;27.430;2023-05-19T05:11:24;2;2;1.3
74426;PMS7003;62859;53.906;27.430;2023-05-19T05:17:08;2;2;1.3
74426;PMS7003;62859;53.906;27.430;2023-05-19T05:21:57;2.3;2.3;2
74426;PMS7003;62859;53.906;27.430;2023-05-19T05:26:46;3;2.5;1.8
74426;PMS7003;62859;53.906;27.430;2023-05-19T05:31:47;2.7;2.3;2
74426;PMS7003;62859;53.906;27.430;2023-05-19T05:37:07;3.3;3;2
74426;PMS7003;62859;53.906;27.430;2023-05-19T05:41:23;3;2.3;1.7
74426;PMS7003;62859;53.906;27.430;2023-05-19T05:46:23;2.3;2;1.5
74426;PMS7003;62859;53.906;27.430;2023-05-19T05:52:08;1.7;1.7;1.3
74426;PMS7003;62859;53.906;27.430;2023-05-19T05:56:36;3;2.3;2
74426;PMS7003;62859;53.906;27.430;2023-05-19T06:01:41;3.3;2.8;2.3
74426;PMS7003;62859;53.906;27.430;2023-05-19T06:06:45;3.7;3;2
74426;PMS7003;62859;53.906;27.430;2023-05-19T06:12:06;2;2;1.7
74426;PMS7003;62859;53.906;27.430;2023-05-19T06:16:45;1.7;1.7;1.7
74426;PMS7003;62859;53.906;27.430;2023-05-19T06:21:45;3.3;2.3;1.8
74426;PMS7003;62859;53.906;27.430;2023-05-19T06:26:47;2;2;1.3
74426;PMS7003;62859;53.906;27.430;2023-05-19T06:31:53;2.7;2.3;1.7
74426;PMS7003;62859;53.906;27.430;2023-05-19T06:36:23;2.7;2.3;1.7
74426;PMS7003;62859;53.906;27.430;2023-05-19T06:41:43;1.8;1.8;1.5
74426;PMS7003;62859;53.906;27.430;2023-05-19T06:46:39;2;1.7;1.3
74426;PMS7003;62859;53.906;27.430;2023-05-19T06:51:23;1.3;1.3;1.3
74426;PMS7003;62859;53.906;27.430;2023-05-19T06:57:05;2;1.3;1.3
74426;PMS7003;62859;53.906;27.430;2023-05-19T07:01:25;2.3;1.8;1.3
74426;PMS7003;62859;53.906;27.430;2023-05-19T07:06:23;1.7;1.7;1.3
74426;PMS7003;62859;53.906;27.430;2023-05-19T07:12:07;2;1;0.3
74426;PMS7003;62859;53.906;27.430;2023-05-19T07:16:23;3;2;1.3
74426;PMS7003;62859;53.906;27.430;2023-05-19T07:21:23;1.3;0.8;0.8
74426;PMS7003;62859;53.906;27.430;2023-05-19T07:26:55;1.3;1.3;0.7
74426;PMS7003;62859;53.906;27.430;2023-05-19T07:32:07;0.7;0.7;0.7
74426;PMS7003;62859;53.906;27.430;2023-05-19T07:36:45;1;0.7;0.7
74426;PMS7003;62859;53.906;27.430;2023-05-19T07:42:07;1.3;1.3;1.3
74426;PMS7003;62859;53.906;27.430;2023-05-19T07:46:47;0.5;0.5;0.3
74426;PMS7003;62859;53.906;27.430;2023-05-19T07:52:17;1.7;1.3;1.3
74426;PMS7003;62859;53.906;27.430;2023-05-19T07:56:23;1;1;0.7
74426;PMS7003;62859;53.906;27.430;2023-05-19T08:01:23;1;0.7;0.3
74426;PMS7003;62859;53.906;27.430;2023-05-19T08:07:07;1.7;1.3;0.7
74426;PMS7003;62859;53.906;27.430;2023-05-19T08:12:05;2;0.8;0.5
74426;PMS7003;62859;53.906;27.430;2023-05-19T08:16:23;1;1;0.7
74426;PMS7003;62859;53.906;27.430;2023-05-19T08:22:07;0.7;0.7;0.3
74426;PMS7003;62859;53.906;27.430;2023-05-19T08:26:33;1;1;0.7
74426;PMS7003;62859;53.906;27.430;2023-05-19T08:31:35;0.5;0.3;0
74426;PMS7003;62859;53.906;27.430;2023-05-19T08:36:23;0.7;0.3;0
74426;PMS7003;62859;53.906;27.430;2023-05-19T08:42:06;3.7;2;1.3
74426;PMS7003;62859;53.906;27.430;2023-05-19T08:46:43;2;1.3;1.3
74426;PMS7003;62859;53.906;27.430;2023-05-19T08:51:38;0.5;0.3;0
74426;PMS7003;62859;53.906;27.430;2023-05-19T08:57:04;0.7;0.7;0.3
74426;PMS7003;62859;53.906;27.430;2023-05-19T09:01:23;1;0;0
74426;PMS7003;62859;53.906;27.430;2023-05-19T09:06:42;1.7;1;0.3
74426;PMS7003;62859;53.906;27.430;2023-05-19T09:11:44;0.3;0.3;0
74426;PMS7003;62859;53.906;27.430;2023-05-19T09:17:07;1.7;1.7;1.3
74426;PMS7003;62859;53.906;27.430;2023-05-19T09:21:56;1;0.3;0.3
74426;PMS7003;62859;53.906;27.430;2023-05-19T09:26:45;2.3;1.5;1
74426;PMS7003;62859;53.906;27.430;2023-05-19T09:31:35;0;0;0
74426;PMS7003;62859;53.906;27.430;2023-05-19T09:36:55;0.7;0.7;0.7
74426;PMS7003;62859;53.906;27.430;2023-05-19T09:41:23;2.3;2.3;1.7
74426;PMS7003;62859;53.906;27.430;2023-05-19T09:46:48;1.3;1.3;0.8
74426;PMS7003;62859;53.906;27.430;2023-05-19T09:51:41;0.7;0.7;0.3
74426;PMS7003;62859;53.906;27.430;2023-05-19T09:56:23;1.3;0.7;0.7
74426;PMS7003;62859;53.906;27.430;2023-05-19T10:02:08;0.3;0.3;0
74426;PMS7003;62859;53.906;27.430;2023-05-19T10:07:07;0.8;0;0
74426;PMS7003;62859;53.906;27.430;2023-05-19T10:11:35;0.3;0.3;0
74426;PMS7003;62859;53.906;27.430;2023-05-19T10:17:07;0;0;0
74426;PMS7003;62859;53.906;27.430;2023-05-19T10:21:23;0.7;0.7;0
74426;PMS7003;62859;53.906;27.430;2023-05-19T10:26:24;1;1;0.3
74426;PMS7003;62859;53.906;27.430;2023-05-19T10:31:57;0;0;0
74426;PMS7003;62859;53.906;27.430;2023-05-19T10:37:11;0.3;0.3;0.3
74426;PMS7003;62859;53.906;27.430;2023-05-19T10:41:46;1;0.3;0.3
74426;PMS7003;62859;53.906;27.430;2023-05-19T10:47:07;1.8;1;0.5
74426;PMS7003;62859;53.906;27.430;2023-05-19T10:52:18;0.7;0.7;0.3
74426;PMS7003;62859;53.906;27.430;2023-05-19T10:56:59;1;0.3;0.3
74426;PMS7003;62859;53.906;27.430;2023-05-19T11:01:41;1;1;0.7
74426;PMS7003;62859;53.906;27.430;2023-05-19T11:07:08;1;1;0.3
74426;PMS7003;62859;53.906;27.430;2023-05-19T11:12:00;0.7;0.3;0
74426;PMS7003;62859;53.906;27.430;2023-05-19T11:16:56;0.7;0.7;0.3
74426;PMS7003;62859;53.906;27.430;2023-05-19T11:21:46;0.8;0.8;0.3
74426;PMS7003;62859;53.906;27.430;2023-05-19T11:27:19;1.3;1.3;0.7
74426;PMS7003;62859;53.906;27.430;2023-05-19T11:31:28;2;1;0.3
74426;PMS7003;62859;53.906;27.430;2023-05-19T11:36:48;0.7;0.7;0.3
74426;PMS7003;62859;53.906;27.430;2023-05-19T11:41:37;2;2;1.3
74426;PMS7003;62859;53.906;27.430;2023-05-19T11:46:50;0.3;0.3;0.3
74426;PMS7003;62859;53.906;27.430;2023-05-19T11:51:38;0.3;0.3;0.3
74426;PMS7003;62859;53.906;27.430;2023-05-19T11:57:04;1;0.7;0.7
74426;PMS7003;62859;53.906;27.430;2023-05-19T12:02:14;0.3;0.3;0
74426;PMS7003;62859;53.906;27.430;2023-05-19T12:06:38;0;0;0
74426;PMS7003;62859;53.906;27.430;2023-05-19T12:12:12;1.7;0.7;0.3
74426;PMS7003;62859;53.906;27.430;2023-05-19T12:16:38;0.3;0;0
74426;PMS7003;62859;53.906;27.430;2023-05-19T12:21:26;1.3;1.3;0.8
74426;PMS7003;62859;53.906;27.430;2023-05-19T12:27:15;1.3;1;0.7
74426;PMS7003;62859;53.906;27.430;2023-05-19T12:32:04;1.3;1.3;1.3
74426;PMS7003;62859;53.906;27.430;2023-05-19T12:36:58;1.7;1;0.3
74426;PMS7003;62859;53.906;27.430;2023-05-19T12:42:01;1.3;1.3;0.8
74426;PMS7003;62859;53.906;27.430;2023-05-19T12:46:26;1.3;1;0.3
74426;PMS7003;62859;53.906;27.430;2023-05-19T12:51:26;1;0.7;0.7
74426;PMS7003;62859;53.906;27.430;2023-05-19T12:56:26;1.7;1;1
74426;PMS7003;62859;53.906;27.430;2023-05-19T13:01:27;2.7;1.7;1.3
74426;PMS7003;62859;53.906;27.430;2023-05-19T13:07:12;1;0.8;0.8
74426;PMS7003;62859;53.906;27.430;2023-05-19T13:11:52;1;1;0.3
74426;PMS7003;62859;53.906;27.430;2023-05-19T13:16:26;1.3;1;0.3
74426;PMS7003;62859;53.906;27.430;2023-05-19T13:22:10;2;0.7;0
74426;PMS7003;62859;53.906;27.430;2023-05-19T13:26:38;2;1.5;0.8
74426;PMS7003;62859;53.906;27.430;2023-05-19T13:31:38;1;0.7;0.7
74426;PMS7003;62859;53.906;27.430;2023-05-19T13:36:28;2.3;1.7;0.3
74426;PMS7003;62859;53.906;27.430;2023-05-19T13:42:12;0.7;0.3;0.3
74426;PMS7003;62859;53.906;27.430;2023-05-19T13:46:26;0.8;0.8;0.5
74426;PMS7003;62859;53.906;27.430;2023-05-19T13:52:12;2;1;0.3
74426;PMS7003;62859;53.906;27.430;2023-05-19T13:57:12;1.7;1.7;1
74426;PMS7003;62859;53.906;27.430;2023-05-19T14:01:52;2;2;1.7
74426;PMS7003;62859;53.906;27.430;2023-05-19T14:06:44;1.3;1.3;0.8
74426;PMS7003;62859;53.906;27.430;2023-05-19T14:12:02;0.7;0.7;0.3
74426;PMS7003;62859;53.906;27.430;2023-05-19T14:16:28;1;1;0.7
74426;PMS7003;62859;53.906;27.430;2023-05-19T14:21:28;2;1.5;1.3
74426;PMS7003;62859;53.906;27.430;2023-05-19T14:26:26;1.3;0.7;0.3
74426;PMS7003;62859;53.906;27.430;2023-05-19T14:32:12;1.7;1.3;0
74426;PMS7003;62859;53.906;27.430;2023-05-19T14:36:58;1;0.7;0
74426;PMS7003;62859;53.906;27.430;2023-05-19T14:41:26;1.5;1;0.5
74426;PMS7003;62859;53.906;27.430;2023-05-19T14:46:26;0.7;0.7;0.3
74426;PMS7003;62859;53.906;27.430;2023-05-19T14:51:52;0.3;0;0
74426;PMS7003;62859;53.906;27.430;2023-05-19T14:56:38;0;0;0
74426;PMS7003;62859;53.906;27.430;2023-05-19T15:02:04;3.3;2.8;2
74426;PMS7003;62859;53.906;27.430;2023-05-19T15:07:04;2.7;2;1.7
74426;PMS7003;62859;53.906;27.430;2023-05-19T15:11:40;3;2.7;2
74426;PMS7003;62859;53.906;27.430;2023-05-19T15:17:14;1.7;1.3;1
74426;PMS7003;62859;53.906;27.430;2023-05-19T15:21:38;2.8;2.5;2
74426;PMS7003;62859;53.906;27.430;2023-05-19T15:26:26;1.7;1.7;1.3
74426;PMS7003;62859;53.906;27.430;2023-05-19T15:31:52;1.3;1.3;1
74426;PMS7003;62859;53.906;27.430;2023-05-19T15:36:26;0.7;0.7;0.7
74426;PMS7003;62859;53.906;27.430;2023-05-19T15:41:26;1;1;0.5
74426;PMS7003;62859;53.906;27.430;2023-05-19T15:46:58;4;2;1.3
74426;PMS7003;62859;53.906;27.430;2023-05-19T15:51:58;2.7;2;1
74426;PMS7003;62859;53.906;27.430;2023-05-19T15:57:12;2.3;2.3;2
74426;PMS7003;62859;53.906;27.430;2023-05-19T16:01:38;1.3;1.3;1.3
74426;PMS7003;62859;53.906;27.430;2023-05-19T16:06:38;1.7;1;0.7
74426;PMS7003;62859;53.906;27.430;2023-05-19T16:11:50;2.7;2;1.3
74426;PMS7003;62859;53.906;27.430;2023-05-19T16:16:38;2.3;1.5;1
74426;PMS7003;62859;53.906;27.430;2023-05-19T16:22:00;2;1.7;1
74426;PMS7003;62859;53.906;27.430;2023-05-19T16:27:00;2;1.3;1
74426;PMS7003;62859;53.906;27.430;2023-05-19T16:31:26;1.7;1.7;1
74426;PMS7003;62859;53.906;27.430;2023-05-19T16:37:04;1.8;1.8;1
74426;PMS7003;62859;53.906;27.430;2023-05-19T16:41:44;1.7;1.7;1.3
74426;PMS7003;62859;53.906;27.430;2023-05-19T16:46:50;1;1;1
74426;PMS7003;62859;53.906;27.430;2023-05-19T16:51:26;1.3;1.3;1.3
74426;PMS7003;62859;53.906;27.430;2023-05-19T16:57:00;2.8;2.5;2
74426;PMS7003;62859;53.906;27.430;2023-05-19T17:02:14;3.3;2.3;1.7
74426;PMS7003;62859;53.906;27.430;2023-05-19T17:06:44;2;1.7;1
74426;PMS7003;62859;53.906;27.430;2023-05-19T17:12:06;4.3;2.7;2.3
74426;PMS7003;62859;53.906;27.430;2023-05-19T17:16:28;3.8;2.8;2
74426;PMS7003;62859;53.906;27.430;2023-05-19T17:21:26;1.3;1.3;1.3
74426;PMS7003;62859;53.906;27.430;2023-05-19T17:27:12;2.3;2.3;1
74426;PMS7003;62859;53.906;27.430;2023-05-19T17:32:00;2.3;2;1.7
74426;PMS7003;62859;53.906;27.430;2023-05-19T17:36:56;2.5;2;1.5
74426;PMS7003;62859;53.906;27.430;2023-05-19T17:42:02;2.7;2.3;1.7
74426;PMS7003;62859;53.906;27.430;2023-05-19T17:46:26;3;3;2.7
74426;PMS7003;62859;53.906;27.430;2023-05-19T17:51:50;4;3.3;2.3
74426;PMS7003;62859;53.906;27.430;2023-05-19T17:56:26;7.5;6.8;5
74426;PMS7003;62859;53.906;27.430;2023-05-19T18:01:52;4.3;4;2.3
74426;PMS7003;62859;53.906;27.430;2023-05-19T18:06:58;4;3.3;2.7
74426;PMS7003;62859;53.906;27.430;2023-05-19T18:11:26;4.8;4;2.5
74426;PMS7003;62859;53.906;27.430;2023-05-19T18:17:12;5;4.3;2.7
74426;PMS7003;62859;53.906;27.430;2023-05-19T18:21:58;4.7;4;3.3
74426;PMS7003;62859;53.906;27.430;2023-05-19T18:26:38;4;3;2.7
74426;PMS7003;62859;53.906;27.430;2023-05-19T18:32:06;4.8;4;2.5
74426;PMS7003;62859;53.906;27.430;2023-05-19T18:37:12;5.3;4.3;3.7
74426;PMS7003;62859;53.906;27.430;2023-05-19T18:42:12;6;4.7;4
74426;PMS7003;62859;53.906;27.430;2023-05-19T18:46:58;8;7.3;6
74426;PMS7003;62859;53.906;27.430;2023-05-19T18:52:12;14;13.5;12.5
74426;PMS7003;62859;53.906;27.430;2023-05-19T18:56:50;10.3;9.7;9
74426;PMS7003;62859;53.906;27.430;2023-05-19T19:01:38;6.7;6.7;5
74426;PMS7003;62859;53.906;27.430;2023-05-19T19:06:26;4.3;4.3;3.3
74426;PMS7003;62859;53.906;27.430;2023-05-19T19:11:42;4.8;4.3;3.5
74426;PMS7003;62859;53.906;27.430;2023-05-19T19:17:04;4.3;4;3.3
74426;PMS7003;62859;53.906;27.430;2023-05-19T19:21:56;4.7;4.3;3.3
74426;PMS7003;62859;53.906;27.430;2023-05-19T19:26:56;5;4.3;3.7
74426;PMS7003;62859;53.906;27.430;2023-05-19T19:32:10;3.5;3.5;3
74426;PMS7003;62859;53.906;27.430;2023-05-19T19:36:26;4;4;2.7
74426;PMS7003;62859;53.906;27.430;2023-05-19T19:42:04;4;3.7;1.7
74426;PMS7003;62859;53.906;27.430;2023-05-19T19:47:04;3.3;3.3;2.7
74426;PMS7003;62859;53.906;27.430;2023-05-19T19:51:26;4.3;3.5;2.8
74426;PMS7003;62859;53.906;27.430;2023-05-19T19:57:12;5.7;4.7;3
74426;PMS7003;62859;53.906;27.430;2023-05-19T20:01:58;4;3;2.7
74426;PMS7003;62859;53.906;27.430;2023-05-19T20:06:58;5.3;4.3;2.8
74426;PMS7003;62859;53.906;27.430;2023-05-19T20:12:04;4.7;4.3;3.7
74426;PMS7003;62859;53.906;27.430;2023-05-19T20:16:58;3;3;2.7
74426;PMS7003;62859;53.906;27.430;2023-05-19T20:21:50;6.3;4.7;3.3
74426;PMS7003;62859;53.906;27.430;2023-05-19T20:26:46;5;4.5;3.8
74426;PMS7003;62859;53.906;27.430;2023-05-19T20:31:26;4;4;2.7
74426;PMS7003;62859;53.906;27.430;2023-05-19T20:36:58;5;3.3;2.7
74426;PMS7003;62859;53.906;27.430;2023-05-19T20:41:38;5;4.7;4.3
74426;PMS7003;62859;53.906;27.430;2023-05-19T20:47:12;4;3.8;2.8
74426;PMS7003;62859;53.906;27.430;2023-05-19T20:51:58;6.7;6;4.3
74426;PMS7003;62859;53.906;27.430;2023-05-19T20:57:06;5.7;4.3;3.3
74426;PMS7003;62859;53.906;27.430;2023-05-19T21:01:26;4.3;4;3
74426;PMS7003;62859;53.906;27.430;2023-05-19T21:07:12;5;4;3.3
74426;PMS7003;62859;53.906;27.430;2023-05-19T21:12:14;4.7;4.3;3.3
74426;PMS7003;62859;53.906;27.430;2023-05-19T21:16:54;5.3;4.3;3
74426;PMS7003;62859;53.906;27.430;2023-05-19T21:22:12;4;3.7;3.3
74426;PMS7003;62859;53.906;27.430;2023-05-19T21:26:38;5.3;4.8;3.8
74426;PMS7003;62859;53.906;27.430;2023-05-19T21:31:26;6.7;5.7;4
74426;PMS7003;62859;53.906;27.430;2023-05-19T21:36:50;4.7;4.3;3.7
74426;PMS7003;62859;53.906;27.430;2023-05-19T21:41:44;5.3;5;4
74426;PMS7003;62859;53.906;27.430;2023-05-19T21:46:52;5.3;5;3.8
74426;PMS7003;62859;53.906;27.430;2023-05-19T21:52:00;4.7;4.7;4
74426;PMS7003;62859;53.906;27.430;2023-05-19T21:56:58;5;4;3.7
74426;PMS7003;62859;53.906;27.430;2023-05-19T22:01:58;6;5;4
74426;PMS7003;62859;53.906;27.430;2023-05-19T22:06:26;4.3;4;3.3
74426;PMS7003;62859;53.906;27.430;2023-05-19T22:11:32;5;5;4
74426;PMS7003;62859;53.906;27.430;2023-05-19T22:17:06;4.7;4;3.7
74426;PMS7003;62859;53.906;27.430;2023-05-19T22:21:50;4.5;4.3;3.8
74426;PMS7003;62859;53.906;27.430;2023-05-19T22:27:14;5;5;3.7
74426;PMS7003;62859;53.906;27.430;2023-05-19T22:32:00;4.3;4;3.3
74426;PMS7003;62859;53.906;27.430;2023-05-19T22:36:26;5;4.7;3.7
74426;PMS7003;62859;53.906;27.430;2023-05-19T22:42:04;5;4.5;3.5
74426;PMS7003;62859;53.906;27.430;2023-05-19T22:46:44;4.7;3.3;3
74426;PMS7003;62859;53.906;27.430;2023-05-19T22:51:58;4.3;4.3;3.3
74426;PMS7003;62859;53.906;27.430;2023-05-19T22:56:26;4.3;4.3;3.3
74426;PMS7003;62859;53.906;27.430;2023-05-19T23:01:58;4.8;4.8;3.3
74426;PMS7003;62859;53.906;27.430;2023-05-19T23:07:14;4.3;3.7;3.7
74426;PMS7003;62859;53.906;27.430;2023-05-19T23:11:38;5.3;4.7;3.7
74426;PMS7003;62859;53.906;27.430;2023-05-19T23:17:12;3.7;3.3;3
74426;PMS7003;62859;53.906;27.430;2023-05-19T23:22:14;4.5;4;3
74426;PMS7003;62859;53.906;27.430;2023-05-19T23:26:38;4;3.3;3
74426;PMS7003;62859;53.906;27.430;2023-05-19T23:31:50;5.3;4.7;3.3
74426;PMS7003;62859;53.906;27.430;2023-05-19T23:37:00;4;3.3;3.3
74426;PMS7003;62859;53.906;27.430;2023-05-19T23:42:16;5;4.8;4
74426;PMS7003;62859;53.906;27.430;2023-05-19T23:46:26;4;3.3;3.3
74426;PMS7003;62859;53.906;27.430;2023-05-19T23:52:16;5;4.3;3.7
74426;PMS7003;62859;53.906;27.430;2023-05-19T23:56:54;5.8;4.8;3.5
